createdAt,value
2022-08-14T00:02:15.624Z,3.67
2022-08-14T00:04:44.891Z,4.13
2022-08-14T00:07:14.102Z,4.82
2022-08-14T00:09:56.373Z,3.97
2022-08-14T00:12:39.246Z,4.05
2022-08-14T00:15:10.216Z,4.28
2022-08-14T00:17:47.231Z,4.45
2022-08-14T00:20:23.788Z,3.80
2022-08-14T00:22:57.373Z,3.88
2022-08-14T00:25:30.735Z,4.18
2022-08-14T00:28:15.513Z,4.03
2022-08-14T00:30:47.348Z,3.83
2022-08-14T00:33:16.449Z,3.83
2022-08-14T00:36:37.372Z,3.47
2022-08-14T00:38:34.935Z,6.80
2022-08-14T00:41:06.157Z,3.92
2022-08-14T00:43:37.509Z,4.18
2022-08-14T00:46:32.811Z,4.50
2022-08-14T00:48:58.082Z,3.90
2022-08-14T00:51:36.817Z,3.63
2022-08-14T00:54:16.798Z,3.88
2022-08-14T00:56:55.052Z,3.80
2022-08-14T00:59:28.373Z,3.75
2022-08-14T01:01:59.091Z,4.10
2022-08-14T01:04:38.431Z,3.80
2022-08-14T01:07:21.450Z,4.03
2022-08-14T01:09:55.257Z,3.63
2022-08-14T01:12:27.358Z,5.18
2022-08-14T01:14:59.281Z,4.35
2022-08-14T01:17:49.589Z,3.42
2022-08-14T01:20:40.027Z,2.83
2022-08-14T01:25:51.392Z,2.72
2022-08-14T01:28:46.980Z,3.08
2022-08-14T01:31:14.295Z,2.40
2022-08-14T01:34:07.446Z,2.35
2022-08-14T01:36:39.692Z,2.30
2022-08-14T01:39:13.395Z,2.15
2022-08-14T01:41:52.999Z,2.47
2022-08-14T01:44:33.393Z,1.80
2022-08-14T01:47:16.481Z,1.65
2022-08-14T01:49:59.726Z,2.00
2022-08-14T01:52:58.760Z,1.92
2022-08-14T01:55:30.483Z,1.90
2022-08-14T01:58:01.264Z,1.70
2022-08-14T02:00:47.873Z,1.77
2022-08-14T02:03:16.681Z,1.80
2022-08-14T02:05:44.100Z,1.88
2022-08-14T02:08:11.439Z,2.03
2022-08-14T02:10:46.723Z,2.13
2022-08-14T02:13:19.757Z,2.10
2022-08-14T02:15:48.479Z,2.00
2022-08-14T02:18:16.429Z,1.95
2022-08-14T02:20:47.513Z,2.03
2022-08-14T02:23:15.061Z,1.77
2022-08-14T02:25:44.182Z,1.80
2022-08-14T02:28:58.494Z,1.80
2022-08-14T02:31:10.751Z,2.10
2022-08-14T02:33:43.631Z,1.70
2022-08-14T02:37:03.902Z,1.90
2022-08-14T02:38:59.590Z,1.70
2022-08-14T02:41:28.804Z,1.67
2022-08-14T02:44:01.048Z,1.65
2022-08-14T02:46:32.416Z,1.75
2022-08-14T02:49:06.233Z,1.90
2022-08-14T02:51:36.757Z,1.60
2022-08-14T02:54:07.298Z,1.60
2022-08-14T02:57:16.681Z,1.67
2022-08-14T02:59:33.410Z,1.90
2022-08-14T03:02:03.078Z,1.83
2022-08-14T03:04:30.831Z,1.70
2022-08-14T03:07:07.434Z,1.70
2022-08-14T03:09:41.886Z,1.60
2022-08-14T03:12:31.001Z,1.65
2022-08-14T03:15:06.291Z,1.55
2022-08-14T03:17:41.028Z,1.38
2022-08-14T03:20:22.884Z,1.55
2022-08-14T03:22:51.503Z,1.55
2022-08-14T03:25:22.133Z,1.90
2022-08-14T03:27:58.704Z,1.95
2022-08-14T03:30:37.132Z,1.30
2022-08-14T03:33:10.324Z,1.75
2022-08-14T03:35:59.938Z,1.70
2022-08-14T03:39:14.043Z,1.58
2022-08-14T03:41:17.573Z,1.90
2022-08-14T03:46:52.798Z,1.70
2022-08-14T03:49:02.981Z,2.13
2022-08-14T03:51:30.472Z,1.50
2022-08-14T03:53:59.557Z,1.58
2022-08-14T03:56:27.872Z,1.60
2022-08-14T03:58:57.238Z,1.58
2022-08-14T04:01:29.414Z,1.80
2022-08-14T04:04:07.791Z,1.70
2022-08-14T04:06:45.236Z,1.73
2022-08-14T04:09:15.100Z,1.52
2022-08-14T04:11:45.230Z,1.60
2022-08-14T04:14:16.471Z,1.63
2022-08-14T04:16:47.384Z,1.67
2022-08-14T04:19:18.849Z,1.70
2022-08-14T04:22:02.282Z,1.80
2022-08-14T04:24:38.196Z,1.95
2022-08-14T04:27:11.488Z,2.00
2022-08-14T04:29:42.414Z,1.92
2022-08-14T04:33:10.370Z,1.60
2022-08-14T04:34:58.558Z,1.98
2022-08-14T04:37:45.248Z,2.25
2022-08-14T04:40:32.618Z,5.20
2022-08-14T04:43:21.066Z,4.93
2022-08-14T04:45:50.993Z,4.22
2022-08-14T04:48:43.123Z,3.97
2022-08-14T04:51:12.433Z,2.58
2022-08-14T04:53:43.925Z,2.40
2022-08-14T04:56:30.616Z,1.90
2022-08-14T04:59:10.312Z,1.90
2022-08-14T05:01:45.118Z,1.75
2022-08-14T05:04:20.081Z,1.52
2022-08-14T05:06:49.609Z,1.60
2022-08-14T05:09:21.696Z,1.80
2022-08-14T05:11:51.556Z,1.40
2022-08-14T05:14:45.423Z,1.67
2022-08-14T05:17:12.125Z,1.70
2022-08-14T05:19:45.072Z,1.73
2022-08-14T05:22:27.348Z,2.25
2022-08-14T05:24:54.823Z,1.40
2022-08-14T05:27:23.972Z,1.73
2022-08-14T05:29:53.608Z,1.70
2022-08-14T05:32:23.588Z,1.80
2022-08-14T05:34:59.241Z,1.42
2022-08-14T05:37:29.547Z,1.83
2022-08-14T05:39:58.995Z,1.95
2022-08-14T05:42:29.163Z,1.60
2022-08-14T05:44:59.881Z,1.83
2022-08-14T05:47:29.073Z,1.75
2022-08-14T05:50:05.688Z,1.65
2022-08-14T05:52:44.695Z,1.98
2022-08-14T05:55:12.377Z,1.90
2022-08-14T05:57:50.288Z,1.60
2022-08-14T06:00:28.500Z,1.42
2022-08-14T06:03:00.041Z,1.75
2022-08-14T06:05:28.811Z,1.95
2022-08-14T06:08:00.243Z,2.38
2022-08-14T06:10:29.420Z,2.50
2022-08-14T06:12:58.273Z,2.77
2022-08-14T06:15:30.045Z,3.13
2022-08-14T06:17:59.097Z,4.63
2022-08-14T06:20:28.593Z,5.65
2022-08-14T06:22:58.181Z,6.47
2022-08-14T06:25:26.827Z,6.65
2022-08-14T06:27:55.759Z,7.63
2022-08-14T06:30:46.461Z,6.35
2022-08-14T06:33:16.619Z,7.38
2022-08-14T06:35:46.894Z,6.30
2022-08-14T06:38:21.563Z,6.57
2022-08-14T06:40:51.885Z,5.00
2022-08-14T06:43:21.249Z,4.63
2022-08-14T06:45:50.362Z,3.50
2022-08-14T06:48:24.093Z,3.28
2022-08-14T06:50:53.781Z,2.20
2022-08-14T06:53:21.815Z,2.08
2022-08-14T06:55:58.347Z,2.58
2022-08-14T06:58:31.497Z,2.80
2022-08-14T07:01:38.911Z,2.60
2022-08-14T07:04:25.167Z,2.75
2022-08-14T07:06:54.876Z,9.00
2022-08-14T07:09:23.491Z,3.80
2022-08-14T07:11:51.752Z,3.25
2022-08-14T07:14:19.293Z,2.10
2022-08-14T07:16:46.523Z,2.40
2022-08-14T07:19:17.537Z,2.80
2022-08-14T07:21:48.492Z,1.77
2022-08-14T07:24:21.717Z,2.95
2022-08-14T07:26:49.859Z,2.70
2022-08-14T07:29:17.534Z,2.03
2022-08-14T07:31:44.998Z,1.92
2022-08-14T07:34:31.849Z,1.70
2022-08-14T07:37:01.609Z,2.25
2022-08-14T07:39:29.009Z,1.88
2022-08-14T07:41:56.316Z,1.92
2022-08-14T07:44:32.351Z,1.92
2022-08-14T07:47:04.104Z,2.60
2022-08-14T07:49:34.187Z,3.40
2022-08-14T07:52:02.442Z,1.88
2022-08-14T07:54:31.594Z,1.50
2022-08-14T07:56:59.723Z,1.70
2022-08-14T07:59:42.534Z,1.65
2022-08-14T08:02:19.389Z,1.90
2022-08-14T08:04:59.398Z,2.08
2022-08-14T08:07:29.823Z,1.98
2022-08-14T08:10:01.054Z,1.60
2022-08-14T08:12:32.366Z,1.95
2022-08-14T08:15:05.998Z,1.98
2022-08-14T08:17:42.630Z,1.92
2022-08-14T08:20:27.122Z,1.80
2022-08-14T08:23:00.448Z,1.80
2022-08-14T08:25:40.080Z,2.00
2022-08-14T08:28:22.133Z,1.98
2022-08-14T08:31:00.043Z,2.05
2022-08-14T08:33:31.740Z,2.40
2022-08-14T08:36:01.720Z,2.50
2022-08-14T08:39:16.676Z,2.17
2022-08-14T08:41:16.832Z,2.63
2022-08-14T08:43:46.723Z,2.20
2022-08-14T08:46:21.486Z,2.95
2022-08-14T08:51:30.755Z,3.13
2022-08-14T08:54:06.196Z,2.85
2022-08-14T08:56:39.901Z,2.47
2022-08-14T08:59:31.698Z,3.03
2022-08-14T09:02:06.771Z,2.70
2022-08-14T09:04:45.489Z,2.45
2022-08-14T09:07:27.336Z,2.63
2022-08-14T09:09:58.655Z,2.92
2022-08-14T09:12:33.481Z,2.58
2022-08-14T09:15:02.576Z,2.70
2022-08-14T09:17:29.988Z,2.65
2022-08-14T09:19:57.713Z,2.95
2022-08-14T09:22:35.743Z,2.85
2022-08-14T09:25:07.126Z,2.70
2022-08-14T09:27:37.112Z,2.60
2022-08-14T09:33:10.804Z,2.78
2022-08-14T09:35:45.794Z,2.70
2022-08-14T09:38:26.044Z,2.50
2022-08-14T09:41:00.939Z,2.67
2022-08-14T09:43:29.869Z,2.70
2022-08-14T09:46:02.495Z,3.08
2022-08-14T09:48:31.245Z,3.25
2022-08-14T09:54:18.181Z,2.80
2022-08-14T09:56:51.691Z,2.80
2022-08-14T09:59:28.284Z,2.60
2022-08-14T10:01:59.731Z,2.85
2022-08-14T10:04:33.818Z,2.67
2022-08-14T10:07:05.817Z,2.70
2022-08-14T10:09:35.228Z,2.38
2022-08-14T10:12:04.823Z,2.85
2022-08-14T10:14:36.579Z,2.42
2022-08-14T10:17:08.570Z,2.35
2022-08-14T10:19:48.091Z,2.60
2022-08-14T10:23:22.233Z,2.60
2022-08-14T10:25:14.338Z,2.30
2022-08-14T10:27:47.227Z,2.30
2022-08-14T10:30:22.362Z,2.60
2022-08-14T10:32:55.574Z,2.05
2022-08-14T10:35:23.353Z,2.58
2022-08-14T10:38:01.357Z,2.58
2022-08-14T10:40:37.530Z,2.20
2022-08-14T10:43:26.677Z,2.47
2022-08-14T10:45:59.931Z,2.13
2022-08-14T10:49:00.846Z,2.60
2022-08-14T10:51:34.267Z,2.17
2022-08-14T10:54:16.939Z,2.70
2022-08-14T10:57:18.791Z,2.65
2022-08-14T10:59:50.309Z,2.60
2022-08-14T11:02:35.804Z,2.60
2022-08-14T11:05:13.498Z,2.90
2022-08-14T11:07:56.476Z,2.70
2022-08-14T11:10:46.009Z,2.90
2022-08-14T11:15:52.807Z,3.20
2022-08-14T11:18:32.269Z,3.05
2022-08-14T11:21:09.360Z,2.90
2022-08-14T11:23:43.846Z,2.75
2022-08-14T11:26:18.932Z,2.35
2022-08-14T11:28:50.167Z,2.97
2022-08-14T11:31:22.128Z,2.63
2022-08-14T11:33:57.864Z,2.60
2022-08-14T11:36:35.267Z,2.40
2022-08-14T11:42:55.612Z,2.53
2022-08-14T11:44:53.739Z,3.33
2022-08-14T11:47:24.766Z,2.72
2022-08-14T11:49:52.315Z,3.38
2022-08-14T11:52:19.638Z,3.20
2022-08-14T11:54:58.214Z,3.45
2022-08-14T11:57:26.199Z,3.38
2022-08-14T12:00:08.391Z,3.50
2022-08-14T12:03:02.723Z,3.30
2022-08-14T12:05:39.915Z,3.80
2022-08-14T12:08:11.154Z,3.20
2022-08-14T12:10:43.306Z,3.20
2022-08-14T12:13:17.537Z,4.35
2022-08-14T12:15:49.632Z,4.78
2022-08-14T12:18:29.972Z,5.00
2022-08-14T12:20:59.947Z,5.72
2022-08-14T12:23:27.660Z,3.88
2022-08-14T12:26:12.125Z,4.00
2022-08-14T12:29:13.058Z,3.85
2022-08-14T12:31:47.418Z,4.13
2022-08-14T12:34:22.880Z,3.25
2022-08-14T12:37:08.050Z,3.67
2022-08-14T12:39:39.760Z,3.20
2022-08-14T12:42:09.209Z,2.97
2022-08-14T12:44:42.927Z,2.50
2022-08-14T12:47:15.275Z,2.78
2022-08-14T12:49:57.782Z,3.20
2022-08-14T12:52:45.200Z,3.10
2022-08-14T12:55:32.528Z,2.47
2022-08-14T12:58:35.072Z,2.58
2022-08-14T13:01:17.195Z,2.60
2022-08-14T13:03:51.683Z,2.63
2022-08-14T13:06:20.456Z,2.90
2022-08-14T13:08:53.051Z,2.60
2022-08-14T13:11:23.906Z,3.08
2022-08-14T13:13:53.783Z,2.63
2022-08-14T13:16:38.252Z,2.53
2022-08-14T13:19:12.097Z,3.10
2022-08-14T13:22:05.601Z,2.83
2022-08-14T13:24:33.943Z,2.95
2022-08-14T13:27:04.291Z,2.83
2022-08-14T13:29:36.940Z,2.72
2022-08-14T13:32:05.834Z,2.72
2022-08-14T13:34:33.944Z,2.80
2022-08-14T13:37:04.230Z,2.50
2022-08-14T13:39:32.679Z,2.45
2022-08-14T13:42:13.432Z,2.45
2022-08-14T13:44:42.867Z,3.08
2022-08-14T13:47:12.133Z,3.30
2022-08-14T13:49:57.205Z,2.97
2022-08-14T13:52:59.159Z,2.72
2022-08-14T13:55:16.010Z,2.92
2022-08-14T13:57:49.776Z,2.45
2022-08-14T14:00:35.628Z,2.67
2022-08-14T14:03:06.139Z,2.70
2022-08-14T14:08:46.813Z,2.50
2022-08-14T14:13:44.650Z,2.58
2022-08-14T14:16:15.050Z,2.25
2022-08-14T14:19:00.230Z,2.40
2022-08-14T14:24:00.956Z,2.47
2022-08-14T14:26:29.480Z,2.77
2022-08-14T14:29:01.736Z,2.47
2022-08-14T14:31:31.211Z,4.03
2022-08-14T14:34:12.290Z,4.55
2022-08-14T14:36:52.420Z,3.10
2022-08-14T14:39:28.901Z,4.05
2022-08-14T14:41:59.432Z,2.55
2022-08-14T14:44:34.581Z,2.22
2022-08-14T14:47:01.983Z,2.50
2022-08-14T14:49:51.125Z,6.40
2022-08-14T14:52:26.781Z,2.88
2022-08-14T14:54:59.214Z,3.08
2022-08-14T14:57:35.247Z,2.72
2022-08-14T15:00:12.594Z,2.45
2022-08-14T15:02:43.139Z,2.92
2022-08-14T15:05:12.647Z,2.42
2022-08-14T15:07:40.381Z,3.38
2022-08-14T15:10:27.552Z,2.53
2022-08-14T15:13:00.548Z,2.92
2022-08-14T15:15:37.474Z,2.97
2022-08-14T15:18:36.916Z,3.50
2022-08-14T15:20:57.473Z,3.25
2022-08-14T15:23:25.367Z,3.30
2022-08-14T15:26:13.061Z,3.60
2022-08-14T15:29:02.914Z,3.95
2022-08-14T15:31:34.662Z,4.40
2022-08-14T15:34:43.216Z,4.80
2022-08-14T15:37:00.931Z,5.88
2022-08-14T15:39:35.490Z,4.90
2022-08-14T15:42:15.020Z,5.25
2022-08-14T15:44:56.906Z,4.93
2022-08-14T15:47:28.934Z,5.38
2022-08-14T15:50:03.002Z,4.80
2022-08-14T15:52:35.430Z,5.28
2022-08-14T15:55:09.159Z,4.70
2022-08-14T15:57:36.899Z,4.75
2022-08-14T16:00:44.236Z,5.00
2022-08-14T16:03:18.114Z,5.22
2022-08-14T16:05:52.896Z,6.40
2022-08-14T16:08:29.777Z,4.35
2022-08-14T16:11:03.628Z,4.68
2022-08-14T16:13:41.431Z,4.50
2022-08-14T16:16:49.435Z,4.10
2022-08-14T16:19:18.312Z,4.35
2022-08-14T16:22:02.060Z,4.60
2022-08-14T16:24:35.779Z,4.20
2022-08-14T16:27:05.372Z,4.32
2022-08-14T16:29:38.522Z,4.70
2022-08-14T16:32:32.572Z,4.65
2022-08-14T16:34:57.358Z,4.40
2022-08-14T16:37:33.924Z,4.35
2022-08-14T16:40:02.377Z,4.35
2022-08-14T16:42:38.925Z,4.18
2022-08-14T16:45:24.285Z,4.20
2022-08-14T16:47:51.706Z,4.35
2022-08-14T16:50:43.481Z,4.43
2022-08-14T16:53:09.606Z,4.60
2022-08-14T16:55:53.469Z,4.30
2022-08-14T16:58:30.278Z,4.72
2022-08-14T17:01:23.046Z,4.70
2022-08-14T17:03:56.684Z,4.38
2022-08-14T17:06:43.069Z,4.80
2022-08-14T17:09:23.849Z,4.55
2022-08-14T17:11:58.160Z,5.28
2022-08-14T17:14:28.432Z,4.78
2022-08-14T17:16:57.988Z,4.20
2022-08-14T17:19:25.788Z,3.65
2022-08-14T17:21:58.535Z,4.00
2022-08-14T17:24:56.206Z,5.05
2022-08-14T17:27:18.444Z,4.82
2022-08-14T17:29:56.760Z,4.00
2022-08-14T17:32:44.451Z,2.88
2022-08-14T17:35:16.423Z,2.75
2022-08-14T17:37:55.604Z,4.78
2022-08-14T17:40:25.918Z,3.37
2022-08-14T17:45:41.275Z,3.40
2022-08-14T17:49:14.400Z,3.50
2022-08-14T17:51:23.806Z,10.10
2022-08-14T17:54:02.956Z,17.08
2022-08-14T17:56:32.596Z,9.63
2022-08-14T17:59:06.238Z,9.18
2022-08-14T18:01:37.322Z,17.33
2022-08-14T18:04:28.090Z,13.13
2022-08-14T18:06:57.779Z,9.00
2022-08-14T18:09:56.148Z,5.50
2022-08-14T18:12:36.672Z,3.50
2022-08-14T18:15:14.417Z,3.83
2022-08-14T18:17:52.561Z,3.65
2022-08-14T18:21:40.116Z,3.50
2022-08-14T18:23:13.654Z,3.78
2022-08-14T18:25:51.646Z,3.72
2022-08-14T18:28:51.494Z,3.53
2022-08-14T18:31:20.697Z,3.67
2022-08-14T18:33:59.669Z,5.35
2022-08-14T18:36:47.205Z,3.90
2022-08-14T18:39:29.729Z,3.95
2022-08-14T18:42:23.976Z,4.18
2022-08-14T18:44:54.550Z,4.53
2022-08-14T18:47:23.702Z,5.18
2022-08-14T18:49:52.841Z,4.85
2022-08-14T18:52:42.916Z,4.30
2022-08-14T18:55:20.665Z,4.15
2022-08-14T18:57:54.676Z,4.60
2022-08-14T19:00:51.388Z,5.15
2022-08-14T19:03:22.524Z,4.47
2022-08-14T19:05:50.880Z,4.80
2022-08-14T19:08:24.854Z,4.65
2022-08-14T19:11:03.985Z,4.00
2022-08-14T19:16:22.881Z,6.78
2022-08-14T19:19:00.158Z,6.50
2022-08-14T19:21:34.364Z,5.75
2022-08-14T19:24:29.437Z,7.00
2022-08-14T19:27:24.467Z,5.00
2022-08-14T19:30:19.603Z,4.95
2022-08-14T19:32:52.354Z,4.90
2022-08-14T19:35:48.491Z,4.60
2022-08-14T19:38:46.422Z,4.95
2022-08-14T19:41:18.994Z,4.20
2022-08-14T19:43:56.727Z,6.53
2022-08-14T19:46:38.757Z,5.53
2022-08-14T19:49:23.200Z,4.00
2022-08-14T19:52:03.196Z,4.55
2022-08-14T19:54:32.445Z,5.32
2022-08-14T19:57:03.306Z,7.85
2022-08-14T19:59:36.776Z,4.30
2022-08-14T20:02:29.921Z,3.90
2022-08-14T20:04:59.152Z,3.95
2022-08-14T20:11:07.095Z,4.50
2022-08-14T20:13:15.346Z,4.40
2022-08-14T20:15:51.258Z,4.30
2022-08-14T20:18:49.041Z,5.03
2022-08-14T20:21:13.690Z,4.55
2022-08-14T20:23:42.145Z,4.95
2022-08-14T20:26:30.549Z,4.55
2022-08-14T20:29:04.819Z,4.57
2022-08-14T20:31:37.228Z,4.63
2022-08-14T20:34:18.970Z,4.78
2022-08-14T20:37:09.880Z,5.35
2022-08-14T20:39:40.092Z,10.63
2022-08-14T20:42:32.222Z,11.05
2022-08-14T20:45:23.739Z,6.10
2022-08-14T20:48:01.353Z,7.40
2022-08-14T20:50:29.994Z,7.32
2022-08-14T20:53:06.088Z,5.75
2022-08-14T20:55:41.426Z,5.13
2022-08-14T20:58:43.990Z,4.65
2022-08-14T21:01:18.661Z,5.50
2022-08-14T21:03:57.325Z,4.90
2022-08-14T21:07:23.939Z,4.73
2022-08-14T21:10:03.356Z,4.95
2022-08-14T21:15:00.880Z,4.82
2022-08-14T21:17:30.395Z,4.65
2022-08-14T21:19:57.949Z,5.15
2022-08-14T21:22:26.857Z,5.07
2022-08-14T21:25:01.483Z,5.25
2022-08-14T21:27:37.421Z,5.13
2022-08-14T21:30:08.478Z,5.65
2022-08-14T21:32:50.237Z,4.97
2022-08-14T21:35:25.990Z,5.10
2022-08-14T21:37:53.778Z,5.20
2022-08-14T21:40:42.383Z,5.35
2022-08-14T21:43:17.876Z,4.95
2022-08-14T21:45:54.063Z,5.15
2022-08-14T21:48:26.354Z,5.65
2022-08-14T21:51:01.136Z,6.30
2022-08-14T21:56:37.272Z,5.97
2022-08-14T21:59:09.325Z,5.88
2022-08-14T22:02:00.277Z,6.30
2022-08-14T22:04:34.312Z,6.20
2022-08-14T22:07:10.138Z,6.22
2022-08-14T22:09:37.747Z,6.20
2022-08-14T22:12:58.069Z,6.20
2022-08-14T22:15:01.801Z,6.70
2022-08-14T22:17:32.347Z,6.47
2022-08-14T22:20:05.150Z,6.93
2022-08-14T22:22:32.565Z,7.07
2022-08-14T22:25:01.072Z,7.22
2022-08-14T22:27:32.439Z,7.43
2022-08-14T22:30:02.205Z,7.63
2022-08-14T22:32:56.751Z,7.35
2022-08-14T22:35:18.415Z,7.72
2022-08-14T22:37:46.005Z,7.82
2022-08-14T22:41:03.177Z,10.48
2022-08-14T22:43:21.009Z,7.80
2022-08-14T22:45:55.677Z,8.85
2022-08-14T22:48:23.498Z,7.03
2022-08-14T22:50:53.695Z,7.35
2022-08-14T22:53:22.033Z,7.70
2022-08-14T22:55:51.944Z,7.18
2022-08-14T22:58:31.410Z,7.97
2022-08-14T23:01:07.669Z,8.32
2022-08-14T23:03:39.732Z,7.60
2022-08-14T23:07:04.484Z,8.23
2022-08-14T23:09:35.463Z,8.45
2022-08-14T23:11:46.913Z,8.20
2022-08-14T23:14:23.966Z,8.63
2022-08-14T23:16:57.312Z,8.25
2022-08-14T23:19:33.662Z,8.23
2022-08-14T23:22:05.252Z,7.68
2022-08-14T23:24:34.271Z,8.25
2022-08-14T23:27:02.768Z,8.50
2022-08-14T23:29:37.787Z,8.27
2022-08-14T23:32:15.488Z,7.78
2022-08-14T23:34:48.247Z,8.63
2022-08-14T23:37:19.293Z,8.35
2022-08-14T23:39:54.510Z,7.90
2022-08-14T23:42:23.349Z,8.27
2022-08-14T23:45:08.307Z,8.25
2022-08-14T23:47:51.686Z,8.63
2022-08-14T23:50:34.374Z,8.02
2022-08-14T23:53:28.198Z,7.82
2022-08-14T23:56:14.736Z,7.80
2022-08-14T23:58:42.226Z,7.68
